Reno (UNR), Valley Road, Nevada Weather observations

Data are for observation ending at time listed.
 Day   Time    Ave.   Ave.  Ave.  Vector   Max.    Total    Solar   Rl      Baro.   Ave.  
  of    of     Air    Rel.  Wind   Wind    Wind   Precip.   Rad.    in      Pres.   Soil  
Year   Day     Temp.  Hum.  Speed  Dir.    Gust                                     Temp. 
2014   (PST)    F      %     mph   deg.    mph      in.     W/m2    W/m2     mb.     F   
-----------------------------------------------------------------------------------------
 353   15:30   45.3    72    1.7   196      3.9     0.00      88     338    857.9   41.1
 353   15:40   45.2    73    2.7   218      4.5     0.00      57     337    857.8   41.1
 353   15:50   45.0    72    3.4   217      8.0     0.00      35     338    857.7   41.2
 353   16:00   45.1    70    3.8   230      7.0     0.00      22     344    857.8   41.2
 353   16:10   44.9    73    3.8   229      5.6     0.00      15     341    857.8   41.3
 353   16:20   44.6    74    3.4   245      7.3     0.00      16     330    857.8   41.3
 353   16:30   44.5    73    4.2   260      7.0     0.00       9     331    857.8   41.4
 353   16:40   44.3    73    4.9   248      7.4     0.00       3     320    857.7   41.4
 353   16:50   44.0    73    5.2   257      8.4     0.00       1     318    857.8   41.5
 353   17:00   43.8    74    4.3   255      8.1     0.00       0     323    858.1   41.5
 353   17:10   43.7    74    3.2   256      6.0     0.00       0     329    858.4   41.5
 353   17:20   43.9    73    2.7   259      4.3     0.00       0     338    858.5   41.5
 353   17:30   44.0    73    2.3   268      3.5     0.00       0     338    858.6   41.5
 353   17:40   44.1    72    2.9   247      4.8     0.00       0     334    858.7   41.5
 353   17:50   44.0    73    2.0   242      3.5     0.00       0     329    858.6   41.5
 353   18:00   43.9    73    0.8   177      3.1     0.00       0     326    858.5   41.5
 353   18:10   43.4    75    1.0   219      2.5     0.00       0     327    858.7   41.5
 353   18:20   43.7    74    2.8   201      4.8     0.00       0     327    858.8   41.5
 353   18:30   44.3    73    2.7   198      5.1     0.00       0     321    858.6   41.5
 353   18:40   43.9    74    2.6   187      5.6     0.00       0     321    858.6   41.4
 353   18:50   43.7    74    2.2   173      5.1     0.00       0     324    858.6   41.4
 353   19:00   43.6    76    5.1   120      9.0     0.00       0     326    858.4   41.4
 353   19:10   43.6    76    4.2   126      5.9     0.00       0     325    858.3   41.4
 353   19:20   43.3    77    3.1   145      5.9     0.00       0     329    858.3   41.4
 353   19:30   43.1    78    1.3   139      3.5     0.00       0     337    858.5   41.4
 353   19:40   42.9    80    2.7   149      5.2     0.00       0     336    858.6   41.3
 353   19:50   42.9    79    1.9   125      5.2     0.00       0     337    858.5   41.3
 353   20:00   42.5    80    1.7    10      3.3     0.00       0     334    858.5   41.3
 353   20:10   42.4    81    2.2    35      4.2     0.00       0     328    858.3   41.3
 353   20:20   42.3    81    2.3     3      3.9     0.00       0     333    858.4   41.3
 353   20:30   42.5    81    3.2    88      5.2     0.00       0     334    858.3   41.2
 353   20:40   42.9    79    2.2    88      5.9     0.00       0     334    858.3   41.2
 353   20:50   42.9    79    1.3    92      3.3     0.00       0     333    858.5   41.2
 353   21:00   42.9    79    2.2    77      4.5     0.00       0     332    858.4   41.2
 353   21:10   42.6    80    3.3    53      6.3     0.00       0     327    858.5   41.2
 353   21:20   42.3    81    2.9    35      4.3     0.00       0     331    858.7   41.2
 353   21:30   42.2    82    1.6   351      2.9     0.00       0     333    858.8   41.2
 353   21:40   42.2    82    1.4   292      2.5     0.00       0     333    859.0   41.1
 353   21:50   42.0    83    1.3    23      2.8     0.00       0     333    859.1   41.1
 353   22:00   41.6    84    1.6     8      2.7     0.00       0     333    859.3   41.1
 353   22:10   41.6    84    1.1    50      2.3     0.00       0     334    859.3   41.1
 353   22:20   41.7    84    1.9   342      2.9     0.00       0     334    859.2   41.1
 353   22:30   41.7    84    0.5   347      1.8     0.00       0     332    859.3   41.1
 353   22:40   41.5    85    0.7    91      1.8     0.00       0     331    859.2   41.1
 353   22:50   41.4    85    0.5   213      1.7     0.00       0     330    859.3   41.1
 353   23:00   41.2    85    0.2    40      1.4     0.00       0     329    859.3   41.1
 353   23:10   41.2    86    1.5   187      2.7     0.00       0     328    859.1   41.0
 353   23:20   41.0    86    2.7    67      4.0     0.00       0     325    858.9   41.0
 353   23:30   41.3    85    1.1    77      2.6     0.00       0     329    858.8   41.0
 353   23:40   41.0    86    1.6   243      2.6     0.00       0     329    858.7   41.0
 353   23:50   40.8    87    1.1   324      2.8     0.00       0     323    858.4   41.0
 354    0:00   40.6    87    1.0   315      2.7     0.00       0     321    858.1   41.0
 354    0:10   40.5    87    1.7   324      2.5     0.00       0     318    858.0   41.0
 354    0:20   40.4    88    1.4   323      2.0     0.00       0     319    858.2   41.0
 354    0:30   40.0    89    2.9   328      5.4     0.00       0     318    858.3   40.9
 354    0:40   40.5    87    3.4   311      6.1     0.00       0     327    858.4   40.9
 354    0:50   40.8    86    2.3    14      4.2     0.00       0     329    858.3   40.9
 354    1:00   40.9    85    3.1   100      6.1     0.00       0     328    858.1   40.9
 354    1:10   41.9    80    3.7    98      7.0     0.00       0     325    857.9   40.9
 354    1:20   43.0    75    2.2    98      5.3     0.00       0     326    857.5   40.9
 354    1:30   41.9    80    1.5    63      4.8     0.00       0     325    857.6   40.8
 354    1:40   41.2    83    4.2    77      7.2     0.00       0     324    857.7   40.8
 354    1:50   40.7    85    2.7    62      6.2     0.00       0     322    857.7   40.8
 354    2:00   40.6    85    2.0   136      3.7     0.00       0     321    857.6   40.8
 354    2:10   40.5    85    2.3   166      4.3     0.00       0     322    857.6   40.8
 354    2:20   40.3    86    1.5   326      2.8     0.00       0     320    857.5   40.8
 354    2:30   40.0    87    2.7   307      5.9     0.00       0     325    857.5   40.8
 354    2:40   40.3    86    3.2    19      6.0     0.00       0     329    857.6   40.7
 354    2:50   41.5    81    3.7    34      6.5     0.00       0     331    857.8   40.7
 354    3:00   42.1    79    3.5     6      5.3     0.00       0     332    857.9   40.7
 354    3:10   42.3    78    2.8    36      4.6     0.00       0     326    858.0   40.7
 354    3:20   41.8    79    3.2   164      5.2     0.00       0     325    857.8   40.7
 354    3:30   41.8    80    1.9   231      4.2     0.00       0     332    857.9   40.7
 354    3:40   41.6    80    2.8    85     11.4     0.00       0     333    857.7   40.7
 354    3:50   42.4    76    2.7    21      7.5     0.00       0     328    857.7   40.7
 354    4:00   44.6    64    3.3   254      9.2     0.00       0     334    857.6   40.6
 354    4:10   45.4    64    3.8   236      9.8     0.00       0     337    857.4   40.6
 354    4:20   45.0    65    5.5   257     11.2     0.00       0     339    857.4   40.6
 354    4:30   45.5    63    6.6   282     13.9     0.00       0     338    857.3   40.6
 354    4:40   45.9    62   10.3   275     21.0     0.00       0     338    857.1   40.6
 354    4:50   46.0    62    7.8   256     13.8     0.00       0     338    857.1   40.6
 354    5:00   45.8    62    6.9   254     13.7     0.00       0     338    857.1   40.6
 354    5:10   45.6    63    6.1   246     12.0     0.00       0     343    857.1   40.6
 354    5:20   45.4    64    9.2   245     14.9     0.00       0     345    857.2   40.6
 354    5:30   45.2    65    7.2   240     16.8     0.00       0     344    857.1   40.6
 354    5:40   45.2    67    9.8   269     15.7     0.00       0     344    857.0   40.6
 354    5:50   45.4    66    8.4   264     15.5     0.00       0     345    857.3   40.6
 354    6:00   44.7    69    4.2   215     10.1     0.00       0     343    857.4   40.6
 354    6:10   44.4    69    8.6   245     15.9     0.00       0     341    857.5   40.6
 354    6:20   44.3    68    9.8   265     15.9     0.00       0     336    857.6   40.6
 354    6:30   44.1    69    7.3   260     13.2     0.00       0     338    857.5   40.6
 354    6:40   44.4    67    9.5   258     17.5     0.00       0     339    857.6   40.7
 354    6:50   44.6    66   10.7   259     20.3     0.00       0     335    857.8   40.7
 354    7:00   44.6    65   11.4   263     20.8     0.00       0     337    857.8   40.7
 354    7:10   44.7    64   12.7   254     23.9     0.00       0     336    857.7   40.7
 354    7:20   44.8    63   11.9   258     21.9     0.00       1     334    857.7   40.7
 354    7:30   44.6    64   10.8   265     20.9     0.00       3     335    857.7   40.7
 354    7:40   44.5    65   11.3   269     19.9     0.00       6     334    857.8   40.7
 354    7:50   44.5    66   10.9   276     22.2     0.00      12     334    857.9   40.7
 354    8:00   44.4    66    8.5   263     16.0     0.00      26     334    857.5   40.7
 354    8:10   44.6    66    7.8   237     15.5     0.00      35     333    857.3   40.7
 354    8:20   44.8    65    6.2   240     15.1     0.00      28     334    857.6   40.7
 354    8:30   44.9    66    2.8   183      5.4     0.00      31     334    857.8   40.7
 354    8:40   45.0    66    5.8   169     10.4     0.00      56     336    857.9   40.8
 354    8:50   45.8    64    8.1   164     15.1     0.00      72     339    858.0   40.8
 354    9:00   45.8    64    6.7   164     10.5     0.00      41     339    858.1   40.8
 354    9:10   46.0    64    4.4   154      8.2     0.00      53     339    858.2   40.8
 354    9:20   46.2    64    2.6   225      4.8     0.00      52     342    858.2   40.8
 354    9:30   46.3    64    2.3   182      6.4     0.00      41     344    858.2   40.8
 354    9:40   46.4    64    4.2   188      8.4     0.00      47     349    858.2   40.8
 354    9:50   46.4    65    3.5   236      9.6     0.00      39     349    858.3   40.9
 354   10:00   46.5    65    6.9   231     13.8     0.00      41     349    858.3   40.9
 354   10:10   46.2    68    8.7   232     16.5     0.00      48     347    858.3   40.9
 354   10:20   45.9    69    9.3   252     16.5     0.00      50     345    858.2   41.0
 354   10:30   45.9    69    6.4   263     11.6     0.00      37     345    858.1   41.0
 354   10:40   45.6    70    8.7   263     16.2     0.00      39     345    858.2   41.0
 354   10:50   45.6    70    6.3   265     13.7     0.00      52     345    858.1   41.1
 354   11:00   45.7    69    5.7   251     12.4     0.00      46     345    858.0   41.1
 354   11:10   45.8    68    8.1   239     12.5     0.00      57     340    857.9   41.1
 354   11:20   46.2    67    4.5   220     11.3     0.00      86     341    857.6   41.2
 354   11:30   46.7    66    4.3   225      9.4     0.00     101     343    857.3   41.2
 354   11:40   47.1    65    2.4   175      8.7     0.00     122     346    857.0   41.2
 354   11:50   47.4    64    2.9    85      6.5     0.00     115     346    856.7   41.3
 354   12:00   47.4    64    4.3   206     10.3     0.00      92     347    856.6   41.3
 354   12:10   47.5    62    5.7   247     15.3     0.00      72     346    856.7   41.3
 354   12:20   47.7    60    5.9   270     13.8     0.00      62     346    856.8   41.4
 354   12:30   47.7    60    9.3   278     18.2     0.00      69     346    856.7   41.4
 354   12:40   47.9    60    9.0   274     16.3     0.00     101     347    856.4   41.5
 354   12:50   48.1    60    9.1   255     16.2     0.00     123     349    856.2   41.5
 354   13:00   48.3    60    6.4   264     14.1     0.00      98     349    856.4   41.6
 354   13:10   48.0    60    9.2   269     18.6     0.00     108     346    856.4   41.6
 354   13:20   48.0    61    8.8   273     21.0     0.00     103     348    856.5   41.7
 354   13:30   48.3    60   10.7   276     23.3     0.00     104     349    856.7   41.7
 354   13:40   48.1    61   11.0   279     19.8     0.00      84     349    856.5   41.8
 354   13:50   48.0    61   11.5   281     19.6     0.00      60     347    856.5   41.8
 354   14:00   47.8    62   11.8   283     19.8     0.00      58     346    856.7   41.9
 354   14:10   47.6    62   11.9   285     22.8     0.00      76     345    856.5   41.9
 354   14:20   47.7    62   12.7   281     22.0     0.00      97     338    856.3   42.0
 354   14:30   47.6    62   11.9   275     21.0     0.00     121     339    856.1   42.0
 354   14:40   47.8    62   12.0   286     19.8     0.00     150     340    856.2   42.0
 354   14:50   48.3    60   12.7   286     21.4     0.00     115     327    856.2   42.1
 354   15:00   48.3    60   12.6   285     21.2     0.00     122     327    856.1   42.1
 354   15:10   48.8    59   10.9   279     19.8     0.00      97     342    856.4   42.2
 354   15:20   49.1    58   12.3   272     19.8     0.00      79     342    856.6   42.2

Return to Reno (UNR), Nevada graphs page.


Western Regional Climate Center,wrcc@dri.edu